Time;durP1;ratioP1;P1;durP2;ratioP2;P2;SDS_P1;SDS_P2;PMS_P1;PMS_P2;Temp;Humidity;BMP_temperature;BMP_pressure;BME280_temperature;BME280_humidity;BME280_pressure;Samples;Min_cycle;Max_cycle;Signal;HPM_P1;HPM_P2
2021/08/31 00:00:14;;;;;;;0.40;0.30;;;;;;;15.23;100.00;100634.09;4975471;28;20477;-53
2021/08/31 00:02:42;;;;;;;0.40;0.37;;;;;;;15.09;100.00;100636.47;4962951;28;20518;-53
2021/08/31 00:05:11;;;;;;;0.40;0.30;;;;;;;15.11;100.00;100635.47;4975147;28;20508;-52
2021/08/31 00:07:38;;;;;;;0.40;0.30;;;;;;;14.81;100.00;100644.78;4974947;28;20454;-52
2021/08/31 00:10:06;;;;;;;0.47;0.40;;;;;;;15.09;100.00;100640.03;4975011;28;20489;-52
2021/08/31 00:12:34;;;;;;;0.40;0.20;;;;;;;15.02;100.00;100640.31;4968682;28;20544;-52
2021/08/31 00:15:02;;;;;;;0.40;0.20;;;;;;;14.61;100.00;100631.28;4974916;28;20485;-52
2021/08/31 00:17:29;;;;;;;0.53;0.50;;;;;;;14.69;100.00;100637.22;4974682;28;20485;-53
2021/08/31 00:19:56;;;;;;;0.40;0.20;;;;;;;14.78;100.00;100642.19;4974881;28;20493;-52
2021/08/31 00:22:23;;;;;;;0.40;0.20;;;;;;;14.81;100.00;100644.78;4949051;28;20483;-52
2021/08/31 00:24:50;;;;;;;1.80;1.70;;;;;;;14.68;100.00;100638.16;4974562;28;20864;-52
2021/08/31 00:27:17;;;;;;;0.40;0.40;;;;;;;14.82;100.00;100642.03;4974936;28;20500;-53
2021/08/31 00:29:44;;;;;;;0.40;0.20;;;;;;;14.92;100.00;100639.81;4974653;28;20529;-52
2021/08/31 00:32:11;;;;;;;0.40;0.30;;;;;;;14.78;100.00;100639.50;4974451;28;20501;-53
2021/08/31 00:34:38;;;;;;;2.27;2.17;;;;;;;14.76;100.00;100639.56;4974385;28;20454;-52
2021/08/31 00:37:05;;;;;;;1.90;1.57;;;;;;;14.90;100.00;100647.06;4974403;28;20477;-53
2021/08/31 00:39:32;;;;;;;0.40;0.30;;;;;;;14.89;100.00;100636.41;4974357;28;20454;-52
2021/08/31 00:41:59;;;;;;;3.13;1.23;;;;;;;14.80;100.00;100640.31;4967249;28;20555;-52
2021/08/31 00:44:27;;;;;;;0.93;0.83;;;;;;;14.78;100.00;100637.69;4969083;28;20490;-52
2021/08/31 00:46:55;;;;;;;0.40;0.40;;;;;;;14.90;100.00;100643.50;4974409;28;20509;-52
2021/08/31 00:49:29;;;;;;;1.13;1.13;;;;;;;14.90;100.00;100648.84;4974147;28;20450;-53
2021/08/31 00:51:57;;;;;;;0.83;0.83;;;;;;;14.88;100.00;100650.72;4974043;28;20502;-53
2021/08/31 00:54:26;;;;;;;0.50;0.50;;;;;;;14.93;100.00;100656.75;4971083;28;20483;-53
2021/08/31 00:56:54;;;;;;;0.63;0.63;;;;;;;15.07;100.00;100651.72;4964681;28;20478;-53
2021/08/31 00:59:21;;;;;;;0.40;0.20;;;;;;;15.22;100.00;100651.09;4974000;28;20454;-53
2021/08/31 01:01:49;;;;;;;0.57;0.50;;;;;;;15.33;100.00;100650.63;4964452;28;20562;-53
2021/08/31 01:04:21;;;;;;;0.40;0.30;;;;;;;15.44;100.00;100660.88;4971139;28;20429;-52
2021/08/31 01:06:52;;;;;;;0.40;0.20;;;;;;;15.57;100.00;100660.28;4974312;28;20450;-53
2021/08/31 01:09:28;;;;;;;0.50;0.50;;;;;;;15.58;100.00;100658.47;4973773;28;20513;-52
2021/08/31 01:11:56;;;;;;;0.40;0.30;;;;;;;15.61;100.00;100653.88;4967320;28;20531;-52
2021/08/31 01:14:25;;;;;;;0.40;0.30;;;;;;;15.52;100.00;100656.09;4948767;28;20561;-53
2021/08/31 01:16:53;;;;;;;0.70;0.70;;;;;;;15.27;100.00;100659.78;4973638;28;20497;-52
2021/08/31 01:19:31;;;;;;;0.40;0.30;;;;;;;15.13;100.00;100664.84;4973992;28;20904;-53
2021/08/31 01:22:09;;;;;;;0.40;0.20;;;;;;;15.07;100.00;100671.31;4974138;28;20485;-49
2021/08/31 01:24:44;;;;;;;0.77;0.60;;;;;;;15.12;100.00;100676.50;4973741;28;20513;-49
2021/08/31 01:27:12;;;;;;;0.40;0.20;;;;;;;15.03;100.00;100677.75;4973500;28;20457;-51
2021/08/31 01:29:39;;;;;;;0.40;0.30;;;;;;;14.84;100.00;100682.09;4972677;28;20543;-49
2021/08/31 01:32:07;;;;;;;0.70;0.70;;;;;;;14.68;100.00;100675.63;4973281;28;20502;-49
2021/08/31 01:34:34;;;;;;;0.40;0.20;;;;;;;14.62;100.00;100679.38;4973484;28;20505;-50
2021/08/31 01:37:01;;;;;;;0.97;0.97;;;;;;;14.76;100.00;100677.03;4973567;28;20876;-50
2021/08/31 01:39:28;;;;;;;0.73;0.73;;;;;;;14.94;100.00;100678.13;4973561;28;20485;-49
2021/08/31 01:41:54;;;;;;;1.77;1.67;;;;;;;14.97;100.00;100680.69;4966934;28;20523;-50
2021/08/31 01:44:21;;;;;;;0.40;0.30;;;;;;;14.94;100.00;100674.56;4967192;28;20486;-50
2021/08/31 01:46:48;;;;;;;0.40;0.30;;;;;;;14.96;100.00;100672.72;4973431;28;20486;-49
2021/08/31 01:49:15;;;;;;;0.97;0.90;;;;;;;14.87;100.00;100681.97;4973323;28;20972;-49
2021/08/31 01:51:42;;;;;;;0.40;0.30;;;;;;;15.00;100.00;100679.69;4973237;28;20494;-49
2021/08/31 01:54:09;;;;;;;0.70;0.70;;;;;;;15.01;100.00;100674.25;4972167;28;20497;-50
2021/08/31 01:56:36;;;;;;;0.90;0.90;;;;;;;15.06;100.00;100674.06;4961951;28;20453;-49
2021/08/31 01:59:03;;;;;;;0.40;0.20;;;;;;;14.76;100.00;100678.84;4973174;28;20482;-49
2021/08/31 02:01:30;;;;;;;1.90;1.80;;;;;;;14.87;100.00;100686.47;4966434;28;20479;-50
2021/08/31 02:03:57;;;;;;;0.40;0.30;;;;;;;14.69;100.00;100680.91;4968208;28;20459;-49
2021/08/31 02:06:24;;;;;;;0.73;0.73;;;;;;;14.72;100.00;100687.94;4973262;28;20486;-49
2021/08/31 02:08:52;;;;;;;0.50;0.40;;;;;;;14.77;100.00;100689.50;4973038;28;20849;-49
2021/08/31 02:11:19;;;;;;;1.93;0.67;;;;;;;14.64;100.00;100693.56;4971738;28;20526;-49
2021/08/31 02:13:45;;;;;;;0.40;0.20;;;;;;;14.59;100.00;100697.38;4969738;28;20528;-49
2021/08/31 02:16:13;;;;;;;0.40;0.20;;;;;;;14.66;100.00;100682.81;4977285;28;20454;-49
2021/08/31 02:18:40;;;;;;;0.40;0.20;;;;;;;14.69;100.00;100682.72;4977005;28;20447;-49
2021/08/31 02:21:08;;;;;;;0.40;0.40;;;;;;;14.84;100.00;100673.22;4976752;28;20533;-51
2021/08/31 02:23:40;;;;;;;0.43;0.37;;;;;;;15.02;100.00;100677.81;4976850;28;20450;-51
2021/08/31 02:26:08;;;;;;;0.40;0.20;;;;;;;15.16;100.00;100666.53;4977102;28;20503;-50
2021/08/31 02:28:35;;;;;;;2.57;2.47;;;;;;;15.26;100.00;100675.94;4976753;28;20462;-49
2021/08/31 02:31:01;;;;;;;0.87;0.87;;;;;;;15.23;100.00;100678.75;4976795;28;20519;-49
2021/08/31 02:33:28;;;;;;;2.23;1.70;;;;;;;14.95;100.00;100676.34;4976603;28;20630;-49
2021/08/31 02:35:55;;;;;;;0.40;0.30;;;;;;;14.88;100.00;100674.81;4976663;28;20454;-51
2021/08/31 02:38:22;;;;;;;0.67;0.67;;;;;;;15.08;100.00;100670.41;4976576;28;20960;-49
2021/08/31 02:40:49;;;;;;;3.07;0.87;;;;;;;15.18;100.00;100672.69;4976533;28;20454;-50
2021/08/31 02:43:16;;;;;;;0.40;0.20;;;;;;;15.23;100.00;100674.25;4963984;28;20959;-49
2021/08/31 02:45:43;;;;;;;0.40;0.20;;;;;;;15.27;100.00;100680.34;4976646;28;20455;-49
2021/08/31 02:48:10;;;;;;;0.40;0.20;;;;;;;15.34;100.00;100681.81;4976400;28;20952;-50
2021/08/31 02:50:37;;;;;;;0.40;0.20;;;;;;;15.28;100.00;100684.78;4976496;28;20450;-49
2021/08/31 02:53:04;;;;;;;2.00;1.90;;;;;;;15.30;100.00;100680.22;4976416;28;20582;-50
2021/08/31 02:55:31;;;;;;;0.40;0.30;;;;;;;15.31;100.00;100682.84;4964506;28;20486;-50
2021/08/31 02:57:58;;;;;;;0.73;0.73;;;;;;;15.34;100.00;100681.81;4975275;28;20486;-49
2021/08/31 03:00:30;;;;;;;0.30;0.20;;;;;;;15.23;100.00;100682.28;4976233;28;20450;-50
2021/08/31 03:02:59;;;;;;;0.40;0.20;;;;;;;15.21;100.00;100684.13;4964040;28;20485;-50
2021/08/31 03:05:26;;;;;;;2.20;0.90;;;;;;;15.25;100.00;100684.91;4976193;28;20485;-52
2021/08/31 03:07:53;;;;;;;1.63;1.53;;;;;;;15.01;100.00;100686.78;4976377;28;20425;-49
2021/08/31 03:10:21;;;;;;;0.47;0.40;;;;;;;14.90;100.00;100684.53;4975971;28;20509;-50
2021/08/31 03:12:48;;;;;;;0.43;0.30;;;;;;;14.92;100.00;100679.09;4969770;28;20525;-49
2021/08/31 03:15:15;;;;;;;0.40;0.30;;;;;;;14.86;100.00;100690.94;4963158;28;20477;-50
2021/08/31 03:17:42;;;;;;;3.60;2.70;;;;;;;14.93;100.00;100691.56;4975898;28;20458;-49
2021/08/31 03:20:09;;;;;;;0.87;0.60;;;;;;;14.77;100.00;100686.81;4975869;28;20450;-50
2021/08/31 03:22:36;;;;;;;0.40;0.27;;;;;;;14.83;100.00;100696.44;4974560;28;20509;-49
2021/08/31 03:25:04;;;;;;;0.30;0.20;;;;;;;14.79;100.00;100698.31;4975333;28;20478;-50
2021/08/31 03:27:34;;;;;;;0.40;0.20;;;;;;;14.86;100.00;100693.63;4975892;28;20447;-49
2021/08/31 03:30:01;;;;;;;0.40;0.40;;;;;;;14.74;100.00;100708.34;4975572;28;20457;-50
2021/08/31 03:32:28;;;;;;;1.23;1.23;;;;;;;14.59;100.00;100706.28;4975929;28;20510;-49
2021/08/31 03:34:54;;;;;;;1.27;1.27;;;;;;;14.51;100.00;100709.22;4976000;28;20478;-49
2021/08/31 03:37:21;;;;;;;0.40;0.30;;;;;;;14.45;100.00;100709.47;4975968;28;21053;-50
2021/08/31 03:39:48;;;;;;;0.40;0.20;;;;;;;14.38;100.00;100712.38;4975955;28;20450;-49
2021/08/31 03:42:15;;;;;;;0.40;0.20;;;;;;;14.45;100.00;100714.81;4966703;28;20510;-50
2021/08/31 03:44:42;;;;;;;0.40;0.40;;;;;;;14.37;100.00;100716.00;4972559;28;20793;-49
2021/08/31 03:47:09;;;;;;;5.40;1.53;;;;;;;14.48;100.00;100716.50;4975726;28;20485;-49
2021/08/31 03:49:36;;;;;;;1.00;1.00;;;;;;;14.43;100.00;100719.31;4975272;28;20468;-50
2021/08/31 03:52:03;;;;;;;0.90;0.90;;;;;;;14.52;100.00;100723.47;4975180;28;21034;-49
2021/08/31 03:54:30;;;;;;;0.40;0.20;;;;;;;14.59;100.00;100716.97;4958988;28;20486;-49
2021/08/31 03:56:57;;;;;;;0.40;0.20;;;;;;;14.71;100.00;100726.34;4966178;28;20967;-49
2021/08/31 03:59:23;;;;;;;0.40;0.20;;;;;;;14.65;100.00;100722.06;4975576;28;20510;-50
2021/08/31 04:01:50;;;;;;;0.40;0.30;;;;;;;14.70;100.00;100725.47;4965686;28;20530;-50
2021/08/31 04:04:17;;;;;;;0.40;0.30;;;;;;;14.73;100.00;100729.81;4972702;28;20491;-50
2021/08/31 04:06:44;;;;;;;2.47;2.40;;;;;;;14.76;100.00;100729.69;4975000;28;20482;-49
2021/08/31 04:09:11;;;;;;;0.70;0.70;;;;;;;14.77;100.00;100745.69;4974996;28;20485;-50
2021/08/31 04:11:38;;;;;;;0.53;0.47;;;;;;;14.73;100.00;100744.06;4970487;28;20554;-49
2021/08/31 04:14:05;;;;;;;0.40;0.30;;;;;;;14.76;100.00;100749.31;4972710;28;20454;-50
2021/08/31 04:16:32;;;;;;;0.60;0.60;;;;;;;14.81;100.00;100752.69;4975003;28;20482;-49
2021/08/31 04:18:59;;;;;;;0.50;0.40;;;;;;;14.83;100.00;100755.31;4974856;28;20470;-48
2021/08/31 04:21:25;;;;;;;0.40;0.30;;;;;;;14.87;100.00;100756.94;4974863;28;20565;-49
2021/08/31 04:23:52;;;;;;;1.00;1.00;;;;;;;14.90;100.00;100753.25;4974794;28;20811;-49
2021/08/31 04:26:19;;;;;;;0.80;0.80;;;;;;;14.92;100.00;100751.38;4974621;28;20464;-50
2021/08/31 04:28:46;;;;;;;0.40;0.30;;;;;;;14.87;100.00;100751.56;4974571;28;20984;-48
2021/08/31 04:31:13;;;;;;;0.83;0.83;;;;;;;14.92;100.00;100752.25;4974531;28;20471;-49
2021/08/31 04:33:40;;;;;;;0.40;0.20;;;;;;;14.88;100.00;100764.03;4974351;28;20511;-49
2021/08/31 04:36:07;;;;;;;0.40;0.20;;;;;;;14.84;100.00;100759.72;4973728;28;20454;-49
2021/08/31 04:38:34;;;;;;;0.50;0.40;;;;;;;14.85;100.00;100765.94;4974279;28;20486;-49
2021/08/31 04:41:01;;;;;;;0.40;0.20;;;;;;;15.22;100.00;100776.09;4974227;28;21062;-49
2021/08/31 04:43:28;;;;;;;0.40;0.20;;;;;;;15.39;100.00;100773.59;4974178;28;20475;-48
2021/08/31 04:45:55;;;;;;;0.40;0.30;;;;;;;15.52;100.00;100773.97;4974344;28;20446;-49
2021/08/31 04:48:22;;;;;;;2.00;1.43;;;;;;;15.53;100.00;100771.25;4974082;28;20505;-50
2021/08/31 04:50:49;;;;;;;2.30;1.67;;;;;;;15.60;100.00;100772.75;4974175;28;20454;-49
2021/08/31 04:53:16;;;;;;;1.07;0.60;;;;;;;15.64;100.00;100771.69;4973972;28;20522;-49
2021/08/31 04:55:43;;;;;;;0.40;0.20;;;;;;;15.70;100.00;100779.47;4961207;28;20815;-49
2021/08/31 04:58:10;;;;;;;0.93;0.87;;;;;;;15.65;100.00;100785.97;4974272;28;20458;-49
2021/08/31 05:00:37;;;;;;;0.80;0.80;;;;;;;15.84;100.00;100781.56;4974023;28;20505;-49
2021/08/31 05:03:04;;;;;;;0.53;0.53;;;;;;;15.82;100.00;100787.94;4961827;28;20485;-49
2021/08/31 05:05:31;;;;;;;0.60;0.60;;;;;;;15.82;100.00;100790.63;4973791;28;20482;-49
2021/08/31 05:07:58;;;;;;;0.90;0.90;;;;;;;15.72;100.00;100791.94;4973873;28;20490;-49
2021/08/31 05:10:25;;;;;;;0.40;0.30;;;;;;;15.86;100.00;100802.94;4973790;28;20450;-49
2021/08/31 05:12:52;;;;;;;0.30;0.20;;;;;;;15.92;100.00;100797.34;4967550;28;20534;-49
2021/08/31 05:15:19;;;;;;;1.80;1.70;;;;;;;16.10;100.00;100793.88;4973877;28;20886;-49
2021/08/31 05:17:46;;;;;;;0.50;0.50;;;;;;;16.27;100.00;100802.03;4973844;28;20960;-50
2021/08/31 05:20:13;;;;;;;0.40;0.30;;;;;;;16.20;100.00;100800.59;4973992;28;20450;-50
2021/08/31 05:22:40;;;;;;;0.40;0.30;;;;;;;16.33;100.00;100806.28;4973663;28;20538;-48
2021/08/31 05:25:07;;;;;;;0.30;0.20;;;;;;;16.29;100.00;100799.28;4973899;28;20505;-49
2021/08/31 05:27:34;;;;;;;0.50;0.50;;;;;;;16.38;100.00;100801.56;4974154;28;20508;-49
2021/08/31 05:30:02;;;;;;;0.40;0.20;;;;;;;16.53;100.00;100795.53;4973798;28;20485;-49
2021/08/31 05:32:29;;;;;;;0.37;0.20;;;;;;;16.46;100.00;100795.88;4973475;28;20498;-49
2021/08/31 05:34:56;;;;;;;0.67;0.67;;;;;;;16.51;100.00;100802.78;4973338;28;20509;-49
2021/08/31 05:37:23;;;;;;;0.40;0.40;;;;;;;16.52;100.00;100801.84;4973803;28;20474;-49
2021/08/31 05:39:49;;;;;;;0.40;0.40;;;;;;;16.47;100.00;100797.63;4973668;28;20478;-49
2021/08/31 05:42:16;;;;;;;1.50;1.03;;;;;;;16.56;100.00;100807.94;4972783;28;20498;-49
2021/08/31 05:44:43;;;;;;;0.40;0.20;;;;;;;16.63;100.00;100812.09;4973503;28;20465;-50
2021/08/31 05:47:10;;;;;;;0.40;0.20;;;;;;;16.51;100.00;100805.47;4973464;28;20496;-49
2021/08/31 05:49:37;;;;;;;0.40;0.30;;;;;;;16.67;100.00;100811.03;4973252;28;20454;-50
2021/08/31 05:52:04;;;;;;;0.50;0.50;;;;;;;16.59;100.00;100811.38;4973509;28;20529;-49
2021/08/31 05:54:32;;;;;;;0.57;0.57;;;;;;;16.49;100.00;100817.22;4969719;28;20455;-49
2021/08/31 05:57:01;;;;;;;2.10;0.83;;;;;;;16.42;100.00;100818.41;4964770;28;20485;-49
2021/08/31 05:59:27;;;;;;;0.93;0.93;;;;;;;16.32;100.00;100815.28;4973324;28;20450;-49
2021/08/31 06:01:59;;;;;;;0.37;0.30;;;;;;;16.36;100.00;100800.78;4961857;28;20494;-50
2021/08/31 06:04:36;;;;;;;0.40;0.20;;;;;;;16.45;100.00;100804.88;4973113;28;20450;-49
2021/08/31 06:07:05;;;;;;;0.40;0.37;;;;;;;16.58;100.00;100809.63;4973253;28;20832;-52
2021/08/31 06:09:35;;;;;;;37.77;3.80;;;;;;;16.78;100.00;100802.50;4973242;28;20959;-49
2021/08/31 06:12:04;;;;;;;0.40;0.27;;;;;;;16.91;100.00;100810.88;4967093;28;20545;-50
2021/08/31 06:14:31;;;;;;;0.40;0.20;;;;;;;16.98;100.00;100809.63;4973197;28;20454;-49
2021/08/31 06:16:58;;;;;;;0.40;0.30;;;;;;;16.97;100.00;100807.88;4971822;28;20482;-49
2021/08/31 06:19:25;;;;;;;0.40;0.30;;;;;;;17.26;100.00;100817.25;4962652;28;20455;-49
2021/08/31 06:21:52;;;;;;;4.87;2.20;;;;;;;17.38;100.00;100822.91;4972696;28;20507;-49
2021/08/31 06:24:19;;;;;;;5.13;2.73;;;;;;;17.56;100.00;100821.16;4973580;28;20474;-49
2021/08/31 06:26:46;;;;;;;0.40;0.20;;;;;;;17.20;100.00;100828.31;4972958;28;20455;-50
2021/08/31 06:29:12;;;;;;;1.50;1.40;;;;;;;17.72;100.00;100829.38;4972943;28;20480;-49
2021/08/31 06:31:39;;;;;;;0.40;0.20;;;;;;;17.76;100.00;100830.97;4973141;28;20470;-50
2021/08/31 06:34:06;;;;;;;0.50;0.30;;;;;;;17.76;100.00;100841.72;4973093;28;20501;-49
2021/08/31 06:36:33;;;;;;;0.63;0.60;;;;;;;17.89;100.00;100832.09;4972797;28;20501;-49
2021/08/31 06:39:00;;;;;;;0.40;0.20;;;;;;;18.14;100.00;100844.31;4972928;28;20952;-49
2021/08/31 06:41:27;;;;;;;1.13;0.70;;;;;;;18.09;100.00;100840.97;4970003;28;20475;-50
2021/08/31 06:43:54;;;;;;;2.60;0.70;;;;;;;17.82;100.00;100846.81;4963301;28;20915;-49
2021/08/31 06:46:22;;;;;;;0.40;0.40;;;;;;;17.92;100.00;100842.69;4972706;28;20508;-50
2021/08/31 06:49:09;;;;;;;1.23;1.23;;;;;;;17.80;100.00;100845.97;4972986;28;20457;-49
2021/08/31 06:51:36;;;;;;;0.40;0.27;;;;;;;17.96;100.00;100835.34;4947131;28;20475;-49
2021/08/31 06:54:03;;;;;;;0.40;0.30;;;;;;;18.11;100.00;100848.03;4972554;28;20494;-50
2021/08/31 06:56:30;;;;;;;1.27;1.27;;;;;;;17.96;100.00;100844.31;4947454;28;20481;-49
2021/08/31 06:58:57;;;;;;;0.40;0.20;;;;;;;18.09;100.00;100840.97;4972578;28;20486;-49
2021/08/31 07:01:24;;;;;;;0.37;0.20;;;;;;;18.18;99.92;100845.88;4970111;28;20837;-49
2021/08/31 07:03:51;;;;;;;0.60;0.60;;;;;;;18.38;98.86;100844.88;4970420;28;20450;-49
2021/08/31 07:06:18;;;;;;;0.40;0.20;;;;;;;18.32;97.11;100848.75;4976093;28;20460;-49
2021/08/31 07:08:45;;;;;;;0.40;0.30;;;;;;;18.61;95.42;100848.09;4975888;28;20449;-49
2021/08/31 07:11:12;;;;;;;0.50;0.40;;;;;;;18.70;95.73;100856.66;4975671;28;20987;-51
2021/08/31 07:13:39;;;;;;;0.70;0.70;;;;;;;18.73;94.43;100851.13;4971281;28;20515;-50
2021/08/31 07:16:06;;;;;;;0.40;0.20;;;;;;;18.81;95.12;100848.91;4976653;28;20453;-50
2021/08/31 07:18:33;;;;;;;0.40;0.20;;;;;;;18.79;94.39;100848.09;4975876;28;20458;-49
2021/08/31 07:21:00;;;;;;;0.60;0.60;;;;;;;18.52;94.79;100859.34;4975919;28;20443;-49
2021/08/31 07:23:27;;;;;;;0.40;0.30;;;;;;;18.63;95.34;100854.28;4976206;28;20450;-53
2021/08/31 07:25:55;;;;;;;0.40;0.20;;;;;;;18.83;93.99;100847.84;4975873;28;20505;-53
2021/08/31 07:28:22;;;;;;;0.77;0.50;;;;;;;18.62;94.39;100851.63;4974521;28;20699;-52
2021/08/31 07:30:50;;;;;;;4.13;2.10;;;;;;;18.96;93.52;100860.66;4975960;28;20457;-53
2021/08/31 07:33:17;;;;;;;0.40;0.37;;;;;;;18.74;93.98;100858.25;4975506;28;21064;-52
2021/08/31 07:35:44;;;;;;;0.40;0.27;;;;;;;18.85;93.94;100863.94;4975965;28;20450;-52
2021/08/31 07:38:11;;;;;;;0.40;0.23;;;;;;;18.85;94.28;100858.53;4975924;28;20450;-53
2021/08/31 07:40:38;;;;;;;0.40;0.30;;;;;;;18.83;92.34;100869.41;4975212;28;20497;-52
2021/08/31 07:43:05;;;;;;;0.40;0.30;;;;;;;18.87;93.34;100868.28;4975288;28;20482;-52
2021/08/31 07:45:37;;;;;;;3.70;1.43;;;;;;;19.12;92.70;100875.03;4975736;28;20426;-54
2021/08/31 07:48:04;;;;;;;0.80;0.80;;;;;;;18.90;90.56;100869.94;4975261;28;20429;-53
2021/08/31 07:50:31;;;;;;;0.47;0.37;;;;;;;19.04;90.25;100875.44;4975439;28;20462;-54
2021/08/31 07:52:58;;;;;;;0.40;0.20;;;;;;;19.08;90.12;100877.03;4975080;28;20494;-54
2021/08/31 07:55:26;;;;;;;1.00;1.00;;;;;;;19.15;88.42;100878.44;4964416;28;20909;-54
2021/08/31 07:57:53;;;;;;;0.40;0.30;;;;;;;19.48;87.34;100874.84;4973474;28;20505;-53
2021/08/31 08:00:20;;;;;;;0.40;0.20;;;;;;;19.39;86.73;100867.25;4975346;28;20936;-53
2021/08/31 08:02:47;;;;;;;0.40;0.20;;;;;;;19.71;86.71;100878.94;4962759;28;20474;-54
2021/08/31 08:05:14;;;;;;;0.40;0.20;;;;;;;19.68;86.32;100877.31;4975461;28;20834;-54
2021/08/31 08:07:41;;;;;;;0.40;0.20;;;;;;;19.20;85.81;100879.06;4975196;28;20433;-53
2021/08/31 08:10:09;;;;;;;0.50;0.50;;;;;;;19.39;85.74;100884.31;4974949;28;21000;-54
2021/08/31 08:12:36;;;;;;;0.40;0.20;;;;;;;19.44;85.89;100889.44;4968056;28;20506;-53
2021/08/31 08:15:04;;;;;;;0.50;0.50;;;;;;;19.25;83.72;100892.28;4974859;28;20935;-54
2021/08/31 08:17:31;;;;;;;0.40;0.20;;;;;;;19.19;85.98;100890.81;4974644;28;20450;-53
2021/08/31 08:19:58;;;;;;;0.40;0.20;;;;;;;19.41;84.84;100893.16;4974938;28;20458;-53
2021/08/31 08:22:28;;;;;;;0.40;0.20;;;;;;;19.37;84.90;100886.22;4974438;28;20529;-53
2021/08/31 08:24:55;;;;;;;0.50;0.40;;;;;;;19.44;84.40;100886.72;4962179;28;20473;-53
2021/08/31 08:27:22;;;;;;;0.63;0.50;;;;;;;19.54;84.08;100887.97;4974428;28;20852;-53
2021/08/31 08:29:49;;;;;;;0.50;0.33;;;;;;;19.47;83.52;100886.59;4974709;28;20499;-53
2021/08/31 08:32:16;;;;;;;0.40;0.30;;;;;;;19.67;84.21;100898.97;4974270;28;20877;-54
2021/08/31 08:34:43;;;;;;;0.40;0.27;;;;;;;19.71;84.06;100900.53;4974691;28;20552;-52
2021/08/31 08:37:11;;;;;;;0.40;0.20;;;;;;;19.61;85.94;100900.19;4974583;28;20436;-53
2021/08/31 08:39:38;;;;;;;0.60;0.50;;;;;;;19.44;86.41;100902.91;4974377;28;20429;-53
2021/08/31 08:42:06;;;;;;;1.33;1.23;;;;;;;19.63;84.83;100902.81;4973616;28;20449;-54
2021/08/31 08:44:33;;;;;;;1.03;1.03;;;;;;;19.77;85.65;100902.91;4974214;28;20454;-53
2021/08/31 08:47:01;;;;;;;0.50;0.43;;;;;;;19.86;83.75;100912.28;4974399;28;20454;-53
2021/08/31 08:49:29;;;;;;;0.40;0.30;;;;;;;19.53;84.73;100910.50;4974387;28;20492;-53
2021/08/31 08:51:59;;;;;;;0.40;0.30;;;;;;;19.46;84.53;100911.78;4974158;28;20445;-54
2021/08/31 08:54:27;;;;;;;0.40;0.30;;;;;;;19.48;85.28;100907.19;4971189;28;20878;-54
2021/08/31 08:56:55;;;;;;;0.40;0.20;;;;;;;19.63;84.25;100914.47;4964491;28;20425;-53
2021/08/31 08:59:23;;;;;;;0.40;0.30;;;;;;;19.40;83.81;100913.00;4974285;28;20451;-53
2021/08/31 09:01:54;;;;;;;0.40;0.20;;;;;;;19.66;84.58;100916.13;4964970;28;20966;-54
2021/08/31 09:04:53;;;;;;;0.40;0.40;;;;;;;19.83;82.80;100924.13;4971859;28;20472;-53
2021/08/31 09:07:27;;;;;;;0.93;0.93;;;;;;;19.71;82.91;100924.81;4940248;28;20465;-53
2021/08/31 09:10:17;;;;;;;2.87;2.73;;;;;;;19.95;83.22;100920.72;4973981;28;20460;-53
2021/08/31 09:12:51;;;;;;;0.40;0.20;;;;;;;20.17;83.16;100923.06;4956000;28;20480;-55
2021/08/31 09:15:24;;;;;;;0.60;0.60;;;;;;;20.19;80.77;100931.06;4973406;28;20429;-55
2021/08/31 09:18:08;;;;;;;0.40;0.20;;;;;;;20.28;79.89;100928.69;4963363;28;20480;-55
2021/08/31 09:20:39;;;;;;;4.00;0.83;;;;;;;20.40;79.70;100927.97;4973965;28;20537;-55
2021/08/31 09:23:08;;;;;;;0.40;0.20;;;;;;;20.43;79.67;100923.41;4973803;28;20481;-53
2021/08/31 09:25:40;;;;;;;0.40;0.20;;;;;;;20.61;80.24;100920.47;4973599;28;20429;-53
2021/08/31 09:28:23;;;;;;;0.40;0.20;;;;;;;20.52;79.09;100917.44;4973737;28;20934;-54
2021/08/31 09:30:58;;;;;;;0.40;0.30;;;;;;;20.50;77.92;100912.13;4952486;28;20425;-53
2021/08/31 09:33:29;;;;;;;0.40;0.23;;;;;;;20.89;77.88;100921.47;4973396;28;20508;-53
2021/08/31 09:36:11;;;;;;;0.70;0.70;;;;;;;20.72;78.02;100918.94;4973622;28;20504;-53
2021/08/31 09:39:06;;;;;;;0.40;0.20;;;;;;;20.68;79.96;100923.66;4973463;28;20513;-53
2021/08/31 09:41:37;;;;;;;0.80;0.80;;;;;;;20.58;78.37;100926.06;4973638;28;20479;-53
2021/08/31 09:44:24;;;;;;;0.40;0.20;;;;;;;20.81;78.92;100932.75;4973498;28;20930;-53
2021/08/31 09:46:59;;;;;;;1.33;1.23;;;;;;;20.83;78.37;100929.94;4973520;28;20486;-53
2021/08/31 09:49:39;;;;;;;0.50;0.43;;;;;;;20.77;76.70;100925.81;4974201;28;20463;-53
2021/08/31 09:52:10;;;;;;;0.40;0.20;;;;;;;20.82;76.62;100937.19;4963915;28;20858;-53
2021/08/31 09:54:43;;;;;;;0.40;0.30;;;;;;;20.56;78.18;100927.97;4966602;28;20820;-53
2021/08/31 09:57:33;;;;;;;0.40;0.40;;;;;;;20.64;77.67;100935.59;4966161;28;20455;-53
2021/08/31 10:00:15;;;;;;;8.20;1.30;;;;;;;20.33;77.61;100932.00;4951419;28;20425;-53
2021/08/31 10:02:47;;;;;;;0.40;0.30;;;;;;;20.30;76.76;100926.78;4961016;28;20452;-53
2021/08/31 10:05:14;;;;;;;0.87;0.50;;;;;;;20.62;76.53;100924.91;4973551;28;20424;-53
2021/08/31 10:07:43;;;;;;;0.40;0.20;;;;;;;20.76;78.65;100931.31;4973253;28;20454;-53
2021/08/31 10:10:10;;;;;;;0.50;0.40;;;;;;;21.06;75.82;100925.84;4973264;28;20849;-53
2021/08/31 10:12:39;;;;;;;0.40;0.20;;;;;;;21.12;76.74;100922.78;4966087;28;20505;-53
2021/08/31 10:15:08;;;;;;;0.40;0.20;;;;;;;21.36;75.55;100928.50;4972951;28;20556;-53
2021/08/31 10:17:36;;;;;;;0.50;0.40;;;;;;;21.04;75.24;100919.66;4973034;28;20490;-53
2021/08/31 10:20:06;;;;;;;0.40;0.20;;;;;;;20.84;76.09;100926.31;4973370;28;20936;-53
2021/08/31 10:22:33;;;;;;;0.50;0.43;;;;;;;21.00;76.11;100930.69;4948545;28;20519;-53
2021/08/31 10:25:01;;;;;;;1.07;1.07;;;;;;;20.57;80.03;100932.41;4973495;28;20425;-53
2021/08/31 10:27:35;;;;;;;0.40;0.20;;;;;;;20.47;81.81;100931.22;4973328;28;21014;-53
2021/08/31 10:30:20;;;;;;;0.40;0.20;;;;;;;20.74;80.42;100933.22;4972946;28;20505;-53
2021/08/31 10:32:47;;;;;;;0.40;0.30;;;;;;;20.59;80.75;100937.72;4972995;28;20503;-53
2021/08/31 10:35:30;;;;;;;0.50;0.50;;;;;;;20.56;82.19;100935.19;4974695;28;20531;-53
2021/08/31 10:37:59;;;;;;;0.40;0.20;;;;;;;20.32;81.99;100935.66;4976841;28;20450;-53
2021/08/31 10:40:33;;;;;;;0.40;0.20;;;;;;;20.41;82.37;100945.03;4976839;28;20437;-53
2021/08/31 10:43:02;;;;;;;1.27;1.00;;;;;;;20.77;81.71;100933.03;4976138;28;20445;-53
2021/08/31 10:45:35;;;;;;;1.23;1.13;;;;;;;20.91;79.53;100930.38;4976414;28;20509;-53
2021/08/31 10:48:23;;;;;;;0.40;0.20;;;;;;;20.66;79.84;100931.84;4975488;28;20483;-53
2021/08/31 10:51:14;;;;;;;0.70;0.70;;;;;;;20.59;78.60;100932.31;4976554;28;20435;-53
2021/08/31 10:53:43;;;;;;;0.40;0.20;;;;;;;20.86;78.35;100933.34;4956538;28;20989;-54
2021/08/31 10:56:22;;;;;;;0.40;0.20;;;;;;;20.91;81.23;100939.34;4963454;28;20417;-53
2021/08/31 10:59:32;;;;;;;0.40;0.30;;;;;;;20.90;82.11;100929.50;4976399;28;20431;-53
2021/08/31 11:01:58;;;;;;;0.50;0.50;;;;;;;20.65;83.02;100940.06;4965683;28;20500;-53
2021/08/31 11:04:31;;;;;;;0.40;0.30;;;;;;;20.75;83.06;100937.66;4975054;28;20932;-53
2021/08/31 11:07:03;;;;;;;0.50;0.40;;;;;;;20.86;83.05;100930.66;4976411;28;20433;-53
2021/08/31 11:09:31;;;;;;;0.40;0.20;;;;;;;20.91;83.79;100928.53;4963242;28;20509;-53
2021/08/31 11:12:10;;;;;;;0.40;0.20;;;;;;;21.09;83.75;100940.03;4969454;28;20532;-53
2021/08/31 11:14:40;;;;;;;0.50;0.50;;;;;;;20.69;83.77;100934.34;4975932;28;20461;-53
2021/08/31 11:17:07;;;;;;;0.40;0.30;;;;;;;21.14;82.40;100940.63;4975726;28;20863;-53
2021/08/31 11:19:34;;;;;;;0.40;0.30;;;;;;;21.06;84.44;100942.94;4976075;28;20477;-52
2021/08/31 11:22:01;;;;;;;0.40;0.30;;;;;;;21.59;83.28;100938.72;4975757;28;20531;-53
2021/08/31 11:24:28;;;;;;;0.43;0.40;;;;;;;21.62;82.86;100938.53;4966449;28;20481;-53
2021/08/31 11:26:57;;;;;;;0.73;0.43;;;;;;;21.63;81.98;100939.41;4972639;28;20451;-53